Time;durP1;ratioP1;P1;durP2;ratioP2;P2;SDS_P1;SDS_P2;PMS_P1;PMS_P2;Temp;Humidity;BMP_temperature;BMP_pressure;BME280_temperature;BME280_humidity;BME280_pressure;Samples;Min_cycle;Max_cycle;Signal;HPM_P1;HPM_P2
2021/11/30 00:01:10;;;;;;;8.95;2.70;;;1.90;99.90;;;;;;5063037;28;20039;-68
2021/11/30 00:03:39;;;;;;;8.13;2.28;;;1.90;99.90;;;;;;5054860;28;20021;-68
2021/11/30 00:06:06;;;;;;;3.97;1.73;;;1.90;99.90;;;;;;5057046;28;20028;-68
2021/11/30 00:08:33;;;;;;;19.35;1.75;;;1.90;99.90;;;;;;5055041;28;20036;-68
2021/11/30 00:11:01;;;;;;;7.63;1.80;;;2.00;99.90;;;;;;5059276;28;20068;-68
2021/11/30 00:13:28;;;;;;;6.53;1.73;;;2.00;99.90;;;;;;5074134;28;20112;-68
2021/11/30 00:15:56;;;;;;;8.27;1.85;;;2.00;99.90;;;;;;5074529;28;20029;-68
2021/11/30 00:18:23;;;;;;;8.23;1.23;;;2.00;99.90;;;;;;5074464;28;20574;-68
2021/11/30 00:20:49;;;;;;;6.72;1.60;;;2.00;99.90;;;;;;5074771;28;20465;-68
2021/11/30 00:23:15;;;;;;;9.32;2.03;;;2.10;99.90;;;;;;5059172;28;20442;-68
2021/11/30 00:25:41;;;;;;;8.55;1.23;;;2.10;99.90;;;;;;5056995;28;20069;-68
2021/11/30 00:28:08;;;;;;;4.50;1.10;;;2.10;99.90;;;;;;5074378;28;20119;-68
2021/11/30 00:30:35;;;;;;;9.38;1.60;;;2.10;99.90;;;;;;5074274;28;20032;-68
2021/11/30 00:33:02;;;;;;;9.23;2.08;;;2.20;99.90;;;;;;5067143;28;20107;-68
2021/11/30 00:35:28;;;;;;;14.95;2.00;;;2.20;99.90;;;;;;5053599;28;20028;-68
2021/11/30 00:37:54;;;;;;;5.20;1.15;;;2.30;99.90;;;;;;5054057;28;20035;-68
2021/11/30 00:40:20;;;;;;;12.48;1.42;;;2.70;99.90;;;;;;5054412;28;20021;-68
2021/11/30 00:42:46;;;;;;;5.25;1.13;;;2.90;99.90;;;;;;5054304;28;20024;-68
2021/11/30 00:45:20;;;;;;;16.45;1.38;;;3.00;99.90;;;;;;5054007;28;20025;-68
2021/11/30 00:47:57;;;;;;;4.75;1.00;;;3.10;99.90;;;;;;5053971;28;20040;-68
2021/11/30 00:50:26;;;;;;;7.78;1.45;;;3.20;99.90;;;;;;5053987;28;20025;-68
2021/11/30 00:52:53;;;;;;;9.27;1.35;;;3.20;99.90;;;;;;5053822;28;20025;-68
2021/11/30 00:55:19;;;;;;;7.55;1.52;;;3.30;99.90;;;;;;5054032;28;20087;-68
2021/11/30 00:57:46;;;;;;;30.38;2.75;;;3.30;99.90;;;;;;5053715;28;20029;-68
2021/11/30 01:00:15;;;;;;;6.38;1.10;;;3.30;99.90;;;;;;5053162;28;20032;-68
2021/11/30 01:02:40;;;;;;;10.13;1.08;;;3.30;99.90;;;;;;5053976;28;20380;-68
2021/11/30 01:05:08;;;;;;;9.57;1.55;;;3.20;99.90;;;;;;5053822;28;20032;-68
2021/11/30 01:07:35;;;;;;;16.50;1.60;;;3.20;99.90;;;;;;5053493;28;20043;-68
2021/11/30 01:10:08;;;;;;;28.75;1.60;;;3.30;99.90;;;;;;5054035;28;20029;-68
2021/11/30 01:12:34;;;;;;;15.05;1.45;;;3.30;99.90;;;;;;5052937;28;20492;-68
2021/11/30 01:15:01;;;;;;;13.27;1.48;;;3.40;99.90;;;;;;5053496;28;20059;-68
2021/11/30 01:17:27;;;;;;;15.60;1.52;;;3.40;99.90;;;;;;5053498;28;20068;-68
2021/11/30 01:19:53;;;;;;;17.85;1.67;;;3.40;99.90;;;;;;5053665;28;20053;-68
2021/11/30 01:22:18;;;;;;;2.95;1.50;;;3.50;99.90;;;;;;5053909;28;20067;-68
2021/11/30 01:24:44;;;;;;;15.70;2.20;;;3.50;99.90;;;;;;5052781;28;20029;-68
2021/11/30 01:27:10;;;;;;;12.77;3.47;;;3.50;99.90;;;;;;5052975;28;20380;-68
2021/11/30 01:29:35;;;;;;;12.95;3.50;;;3.60;99.90;;;;;;5052543;28;20102;-68
2021/11/30 01:32:01;;;;;;;15.82;4.18;;;3.60;99.90;;;;;;5053158;28;20025;-68
2021/11/30 01:34:27;;;;;;;17.25;5.05;;;3.60;99.90;;;;;;5053098;28;20079;-68
2021/11/30 01:36:53;;;;;;;17.13;4.90;;;3.70;99.90;;;;;;5052700;28;20032;-68
2021/11/30 01:39:19;;;;;;;20.25;5.00;;;3.60;99.90;;;;;;5052969;28;20392;-67
2021/11/30 01:41:45;;;;;;;13.63;4.90;;;3.60;99.90;;;;;;5053106;28;20029;-67
2021/11/30 01:44:25;;;;;;;16.25;4.95;;;3.70;99.90;;;;;;5053110;28;20017;-67
2021/11/30 01:46:56;;;;;;;15.32;5.15;;;3.70;99.90;;;;;;5053010;28;20096;-67
2021/11/30 01:49:34;;;;;;;17.77;4.88;;;3.70;99.90;;;;;;5053283;28;20051;-67
2021/11/30 01:52:00;;;;;;;8.68;4.30;;;3.80;99.90;;;;;;5055705;28;20764;-67
2021/11/30 01:54:26;;;;;;;21.20;4.60;;;3.90;99.90;;;;;;5073094;28;20384;-67
2021/11/30 01:56:51;;;;;;;24.08;4.65;;;4.00;99.90;;;;;;5070801;28;20022;-67
2021/11/30 01:59:17;;;;;;;30.55;6.30;;;4.00;99.90;;;;;;5076814;28;20110;-67
2021/11/30 02:01:43;;;;;;;28.75;4.57;;;4.00;99.90;;;;;;5067213;28;20028;-67
2021/11/30 02:04:08;;;;;;;18.92;3.80;;;4.10;99.90;;;;;;5057089;28;20423;-67
2021/11/30 02:06:34;;;;;;;39.55;4.43;;;4.20;99.90;;;;;;5056677;28;20420;-67
2021/11/30 02:09:00;;;;;;;41.67;3.30;;;4.20;99.90;;;;;;5056966;28;20029;-67
2021/11/30 02:11:26;;;;;;;36.78;2.90;;;4.30;99.90;;;;;;5056892;28;20021;-67
2021/11/30 02:13:52;;;;;;;27.73;3.42;;;4.40;99.90;;;;;;5056873;28;20566;-67
2021/11/30 02:16:20;;;;;;;22.48;3.08;;;4.50;99.90;;;;;;5056455;28;20032;-66
2021/11/30 02:18:47;;;;;;;29.35;4.47;;;4.50;99.90;;;;;;5067265;28;20050;-67
2021/11/30 02:21:13;;;;;;;32.33;3.88;;;4.60;99.90;;;;;;5056747;28;20021;-67
2021/11/30 02:24:21;;;;;;;38.10;3.95;;;4.60;99.90;;;;;;5056716;28;20024;-67
2021/11/30 02:26:29;;;;;;;47.80;3.65;;;4.60;99.90;;;;;;5062565;28;20515;-67
2021/11/30 02:28:57;;;;;;;33.25;3.00;;;4.60;99.90;;;;;;5076638;28;20420;-67
2021/11/30 02:31:26;;;;;;;30.05;3.47;;;4.60;99.90;;;;;;5070515;28;20025;-67
2021/11/30 02:33:52;;;;;;;20.80;4.45;;;4.50;99.90;;;;;;5056790;28;20075;-67
2021/11/30 02:36:26;;;;;;;40.17;3.45;;;4.60;99.90;;;;;;5056360;28;20029;-67
2021/11/30 02:38:59;;;;;;;22.98;3.10;;;4.60;99.90;;;;;;5075337;28;20395;-67
2021/11/30 02:41:26;;;;;;;25.10;5.20;;;4.60;99.90;;;;;;5056151;28;20417;-67
2021/11/30 02:43:52;;;;;;;18.95;3.28;;;4.70;99.90;;;;;;5056613;28;20768;-67
2021/11/30 02:46:34;;;;;;;22.23;2.92;;;4.70;99.90;;;;;;5059085;28;20139;-67
2021/11/30 02:49:02;;;;;;;35.88;3.30;;;4.80;99.90;;;;;;5055755;28;20021;-67
2021/11/30 02:51:28;;;;;;;31.90;4.32;;;4.70;99.90;;;;;;5072835;28;20477;-67
2021/11/30 02:53:58;;;;;;;19.65;3.60;;;4.70;99.90;;;;;;5076148;28;20032;-67
2021/11/30 02:56:25;;;;;;;17.33;2.83;;;4.80;99.90;;;;;;5075962;28;20472;-67
2021/11/30 02:58:51;;;;;;;13.80;2.30;;;4.80;99.90;;;;;;5054028;28;20029;-67
2021/11/30 03:01:16;;;;;;;14.73;2.55;;;4.80;99.90;;;;;;5041681;28;20037;-67
2021/11/30 03:03:42;;;;;;;17.33;2.65;;;4.80;99.90;;;;;;5036046;28;20473;-67
2021/11/30 03:06:07;;;;;;;18.95;3.17;;;4.80;99.90;;;;;;5040728;28;20021;-67
2021/11/30 03:08:38;;;;;;;18.98;3.15;;;4.80;99.90;;;;;;5036160;28;20033;-67
2021/11/30 03:11:04;;;;;;;16.20;2.13;;;4.80;99.90;;;;;;5040021;28;20485;-67
2021/11/30 03:13:29;;;;;;;19.42;2.17;;;4.90;99.90;;;;;;5053010;28;20043;-67
2021/11/30 03:15:57;;;;;;;16.60;1.88;;;5.00;99.90;;;;;;5055584;28;20037;-67
2021/11/30 03:18:23;;;;;;;21.10;2.92;;;5.00;99.90;;;;;;5038764;28;20021;-67
2021/11/30 03:20:49;;;;;;;18.60;2.95;;;5.00;99.90;;;;;;5035741;28;20025;-67
2021/11/30 03:23:15;;;;;;;27.77;3.80;;;5.00;99.90;;;;;;5037475;28;20519;-67
2021/11/30 03:25:42;;;;;;;20.77;4.03;;;5.00;99.90;;;;;;5038073;28;20528;-68
2021/11/30 03:28:11;;;;;;;24.98;3.75;;;5.00;99.90;;;;;;5070883;28;20116;-67
2021/11/30 03:30:41;;;;;;;28.20;5.45;;;5.10;99.90;;;;;;5055737;28;20484;-67
2021/11/30 03:35:54;;;;;;;29.17;4.00;;;5.30;99.90;;;;;;5035428;28;20112;-67
2021/11/30 03:38:20;;;;;;;30.85;4.18;;;5.40;99.90;;;;;;5035416;28;20108;-67
2021/11/30 03:40:46;;;;;;;17.00;2.97;;;5.40;99.90;;;;;;5035367;28;20502;-67
2021/11/30 03:43:11;;;;;;;29.60;4.07;;;5.50;99.90;;;;;;5035530;28;20025;-67
2021/11/30 03:45:37;;;;;;;24.38;3.80;;;5.60;99.90;;;;;;5034667;28;20035;-67
2021/11/30 03:48:03;;;;;;;30.70;3.55;;;5.60;99.90;;;;;;5035209;28;20045;-67
2021/11/30 03:50:28;;;;;;;31.83;4.88;;;5.80;99.90;;;;;;5035408;28;20179;-67
2021/11/30 03:52:54;;;;;;;31.17;5.45;;;6.00;99.90;;;;;;5035062;28;20425;-67
2021/11/30 03:55:19;;;;;;;38.78;5.03;;;6.20;99.90;;;;;;5035055;28;20082;-67
2021/11/30 03:57:45;;;;;;;40.63;4.47;;;6.30;99.90;;;;;;5049727;28;20022;-67
2021/11/30 04:00:11;;;;;;;31.73;5.13;;;6.40;99.90;;;;;;5038507;28;20048;-67
2021/11/30 04:02:38;;;;;;;24.05;3.80;;;6.50;99.90;;;;;;5055144;28;20534;-67
2021/11/30 04:05:06;;;;;;;36.00;3.40;;;6.60;99.90;;;;;;5050961;28;20022;-67
2021/11/30 04:07:32;;;;;;;35.40;3.72;;;6.70;99.90;;;;;;5034435;28;20021;-67
2021/11/30 04:09:58;;;;;;;36.05;4.40;;;6.80;99.90;;;;;;5034803;28;20033;-67
2021/11/30 04:12:23;;;;;;;48.88;5.45;;;6.80;99.90;;;;;;5041463;28;20035;-67
2021/11/30 04:14:49;;;;;;;43.30;4.50;;;6.90;99.90;;;;;;5054171;28;20032;-67
2021/11/30 04:17:14;;;;;;;51.47;4.35;;;6.80;99.90;;;;;;5054415;28;20040;-67
2021/11/30 04:19:40;;;;;;;63.00;5.20;;;6.90;99.90;;;;;;5053769;28;20029;-67
2021/11/30 04:22:06;;;;;;;43.10;4.47;;;6.90;99.90;;;;;;5054738;28;20021;-67
2021/11/30 04:24:31;;;;;;;51.35;4.45;;;6.90;99.90;;;;;;5054977;28;20100;-68
2021/11/30 04:26:57;;;;;;;37.85;5.20;;;6.80;99.90;;;;;;5053896;28;20021;-68
2021/11/30 04:29:23;;;;;;;68.15;5.60;;;6.80;99.90;;;;;;5054174;28;20082;-67
2021/11/30 04:31:48;;;;;;;34.83;3.85;;;6.80;99.90;;;;;;5054591;28;20029;-67
2021/11/30 04:34:16;;;;;;;40.53;5.72;;;6.80;99.90;;;;;;5054516;28;20107;-67
2021/11/30 04:36:41;;;;;;;45.28;5.63;;;6.80;99.90;;;;;;5054118;28;20029;-68
2021/11/30 04:39:07;;;;;;;39.40;4.40;;;6.70;99.90;;;;;;5053850;28;20040;-68
2021/11/30 04:41:33;;;;;;;28.77;4.72;;;6.60;99.90;;;;;;5054625;28;20025;-67
2021/11/30 04:43:59;;;;;;;59.78;5.50;;;6.60;99.90;;;;;;5054019;28;20021;-67
2021/11/30 04:46:26;;;;;;;43.28;5.65;;;6.50;99.90;;;;;;5053895;28;20025;-67
2021/11/30 04:48:57;;;;;;;60.10;5.63;;;6.50;99.90;;;;;;5053962;28;20477;-68
2021/11/30 04:51:23;;;;;;;48.03;5.05;;;6.50;99.90;;;;;;5053407;28;20040;-68
2021/11/30 04:53:50;;;;;;;41.80;4.22;;;6.40;99.90;;;;;;5053868;28;20078;-68
2021/11/30 04:56:16;;;;;;;42.20;4.78;;;6.40;99.90;;;;;;5053691;28;20437;-68
2021/11/30 04:58:45;;;;;;;27.23;4.63;;;6.30;99.90;;;;;;5054041;28;20048;-67
2021/11/30 05:01:11;;;;;;;28.77;4.43;;;6.20;99.90;;;;;;5053754;28;20017;-68
2021/11/30 05:03:38;;;;;;;37.35;5.18;;;6.20;99.90;;;;;;5053213;28;20542;-68
2021/11/30 05:06:05;;;;;;;45.60;7.10;;;6.10;99.90;;;;;;5053629;28;20075;-67
2021/11/30 05:08:31;;;;;;;40.60;7.68;;;6.10;99.90;;;;;;5053853;28;20043;-67
2021/11/30 05:10:57;;;;;;;39.40;6.15;;;6.10;99.90;;;;;;5053067;28;20032;-68
2021/11/30 05:13:22;;;;;;;25.48;3.38;;;6.00;99.90;;;;;;5053556;28;20036;-68
2021/11/30 05:15:48;;;;;;;38.67;4.40;;;6.00;99.90;;;;;;5053440;28;20037;-68
2021/11/30 05:18:13;;;;;;;31.20;4.45;;;6.00;99.90;;;;;;5053419;28;20055;-68
2021/11/30 05:20:39;;;;;;;35.53;4.00;;;6.00;99.90;;;;;;5052985;28;20035;-68
2021/11/30 05:23:05;;;;;;;35.58;5.15;;;5.90;99.90;;;;;;5053449;28;20055;-68
2021/11/30 05:25:35;;;;;;;57.65;4.95;;;5.90;99.90;;;;;;5053599;28;20024;-68
2021/11/30 05:28:04;;;;;;;30.30;5.68;;;5.90;99.90;;;;;;5052746;28;20131;-68
2021/11/30 05:30:36;;;;;;;42.45;5.13;;;5.80;99.90;;;;;;5052702;28;20036;-68
2021/11/30 05:33:07;;;;;;;40.47;5.35;;;5.80;99.90;;;;;;5053449;28;20024;-68
2021/11/30 05:35:32;;;;;;;43.45;5.45;;;5.70;99.90;;;;;;5053534;28;20029;-68
2021/11/30 05:37:58;;;;;;;34.17;5.47;;;5.70;99.90;;;;;;5052629;28;20484;-68
2021/11/30 05:40:24;;;;;;;45.40;5.78;;;5.70;99.90;;;;;;5053187;28;20021;-68
2021/11/30 05:42:50;;;;;;;54.88;6.18;;;5.70;99.90;;;;;;5053417;28;20048;-68
2021/11/30 05:45:15;;;;;;;45.55;5.75;;;5.80;99.90;;;;;;5053306;28;20503;-68
2021/11/30 05:47:41;;;;;;;45.30;6.50;;;5.80;99.90;;;;;;5058418;28;20062;-68
2021/11/30 05:50:07;;;;;;;49.08;5.95;;;5.80;99.90;;;;;;5061291;28;20078;-68
2021/11/30 05:52:33;;;;;;;30.50;5.75;;;5.80;99.90;;;;;;5057259;28;20441;-68
2021/11/30 05:54:58;;;;;;;43.45;10.90;;;5.70;99.90;;;;;;5058356;28;20057;-68
2021/11/30 05:57:24;;;;;;;34.95;4.63;;;5.70;99.90;;;;;;5052570;28;20507;-68
2021/11/30 05:59:51;;;;;;;27.55;3.75;;;5.60;99.90;;;;;;5052425;28;20025;-69
2021/11/30 06:02:18;;;;;;;18.85;3.47;;;5.70;99.90;;;;;;5054224;28;20032;-68
2021/11/30 06:04:44;;;;;;;26.08;4.53;;;5.70;99.90;;;;;;5072968;28;20487;-68
2021/11/30 06:07:09;;;;;;;38.55;5.63;;;5.70;99.90;;;;;;5070807;28;20033;-68
2021/11/30 06:09:36;;;;;;;31.45;3.95;;;5.70;99.90;;;;;;5052925;28;20435;-68
2021/11/30 06:12:02;;;;;;;50.47;5.22;;;5.70;99.90;;;;;;5053370;28;20027;-68
2021/11/30 06:14:28;;;;;;;40.22;4.65;;;5.80;99.90;;;;;;5051932;28;20458;-68
2021/11/30 06:16:53;;;;;;;40.50;4.90;;;5.80;99.90;;;;;;5052652;28;20029;-68
2021/11/30 06:19:20;;;;;;;40.58;4.78;;;5.80;99.90;;;;;;5052560;28;20029;-68
2021/11/30 06:21:47;;;;;;;40.00;6.00;;;5.80;99.90;;;;;;5052730;28;20013;-68
2021/11/30 06:24:13;;;;;;;25.42;5.03;;;5.90;99.90;;;;;;5053418;28;20044;-68
2021/11/30 06:26:39;;;;;;;45.22;6.68;;;5.80;99.90;;;;;;5066044;28;20028;-68
2021/11/30 06:29:07;;;;;;;34.75;4.32;;;5.70;99.90;;;;;;5052997;28;20021;-68
2021/11/30 06:31:32;;;;;;;36.13;5.88;;;5.70;99.90;;;;;;5052428;28;20033;-68
2021/11/30 06:33:58;;;;;;;34.28;6.43;;;5.70;99.90;;;;;;5052649;28;20108;-68
2021/11/30 06:36:23;;;;;;;34.55;5.18;;;5.70;99.90;;;;;;5051999;28;20028;-68
2021/11/30 06:38:49;;;;;;;39.10;6.13;;;5.70;99.90;;;;;;5052610;28;20029;-68
2021/11/30 06:41:16;;;;;;;42.10;8.10;;;5.70;99.90;;;;;;5052624;28;20074;-68
2021/11/30 06:43:42;;;;;;;64.68;7.40;;;5.60;99.90;;;;;;5054086;28;20491;-68
2021/11/30 06:46:08;;;;;;;57.78;7.53;;;5.70;99.90;;;;;;5055762;28;20025;-68
2021/11/30 06:48:33;;;;;;;57.33;7.15;;;5.70;99.90;;;;;;5056294;28;20072;-68
2021/11/30 06:50:59;;;;;;;39.78;6.68;;;5.70;99.90;;;;;;5056054;28;20035;-68
2021/11/30 06:53:29;;;;;;;58.72;6.53;;;5.70;99.90;;;;;;5055682;28;20089;-68
2021/11/30 06:55:54;;;;;;;40.75;5.70;;;5.70;99.90;;;;;;5056245;28;20029;-68
2021/11/30 06:58:20;;;;;;;41.53;6.03;;;5.70;99.90;;;;;;5055602;28;20035;-68
2021/11/30 07:00:49;;;;;;;52.45;6.50;;;5.70;99.90;;;;;;5055492;28;20055;-69
2021/11/30 07:03:14;;;;;;;39.65;7.05;;;5.70;99.90;;;;;;5055778;28;20021;-68
2021/11/30 07:05:42;;;;;;;52.45;5.82;;;5.70;99.90;;;;;;5055888;28;20028;-68
2021/11/30 07:11:02;;;;;;;44.38;5.57;;;5.70;99.90;;;;;;5055891;28;20044;-68
2021/11/30 07:13:30;;;;;;;54.47;6.18;;;5.70;99.90;;;;;;5071479;28;20478;-68
2021/11/30 07:16:02;;;;;;;44.60;5.65;;;5.80;99.90;;;;;;5075631;28;20515;-68
2021/11/30 07:18:28;;;;;;;52.85;5.82;;;5.80;99.90;;;;;;5057380;28;20082;-68
2021/11/30 07:20:55;;;;;;;55.50;6.47;;;5.80;99.90;;;;;;5055969;28;20028;-68
2021/11/30 07:23:21;;;;;;;61.58;6.25;;;5.90;99.90;;;;;;5054783;28;20492;-68
2021/11/30 07:25:51;;;;;;;35.80;5.30;;;5.90;99.90;;;;;;5058372;28;20468;-68
2021/11/30 07:28:18;;;;;;;38.47;5.60;;;6.00;99.90;;;;;;5060544;28;20028;-68
2021/11/30 07:30:44;;;;;;;41.63;5.65;;;5.90;99.90;;;;;;5055604;28;20029;-68
2021/11/30 07:33:10;;;;;;;48.92;6.38;;;6.00;99.90;;;;;;5061026;28;20025;-68
2021/11/30 07:35:36;;;;;;;41.30;6.65;;;6.00;99.90;;;;;;5061098;28;20032;-68
2021/11/30 07:38:02;;;;;;;42.95;5.43;;;6.00;99.90;;;;;;5062556;28;20044;-68
2021/11/30 07:40:27;;;;;;;47.92;7.10;;;6.20;99.90;;;;;;5055597;28;20032;-68
2021/11/30 07:42:53;;;;;;;36.28;5.97;;;6.20;99.90;;;;;;5054953;28;20411;-68
2021/11/30 07:45:19;;;;;;;45.75;6.72;;;6.20;99.90;;;;;;5055416;28;20110;-68
2021/11/30 07:47:45;;;;;;;42.08;6.15;;;6.20;99.90;;;;;;5055997;28;20037;-68
2021/11/30 07:50:11;;;;;;;51.13;6.20;;;6.20;99.90;;;;;;5054922;28;20492;-68
2021/11/30 07:52:40;;;;;;;35.38;6.03;;;6.10;99.90;;;;;;5055001;28;20100;-68
2021/11/30 07:55:08;;;;;;;47.90;5.93;;;6.20;99.90;;;;;;5054087;28;20100;-68
2021/11/30 07:57:34;;;;;;;52.17;8.20;;;6.20;99.90;;;;;;5070067;28;20025;-68
2021/11/30 07:59:59;;;;;;;43.60;7.20;;;6.10;99.90;;;;;;5054939;28;20025;-68
2021/11/30 08:02:25;;;;;;;46.08;7.80;;;5.90;99.90;;;;;;5055430;28;20078;-69
2021/11/30 08:04:51;;;;;;;55.58;7.78;;;5.90;99.90;;;;;;5054805;28;20021;-68
2021/11/30 08:07:18;;;;;;;71.72;9.10;;;5.90;99.90;;;;;;5054915;28;20047;-69
2021/11/30 08:09:45;;;;;;;51.13;6.63;;;5.90;99.90;;;;;;5054419;28;20025;-68
2021/11/30 08:12:10;;;;;;;44.17;7.85;;;5.90;99.90;;;;;;5054509;28;20029;-69
2021/11/30 08:14:36;;;;;;;64.35;7.82;;;5.90;99.90;;;;;;5063784;28;20055;-69
2021/11/30 08:17:02;;;;;;;53.97;7.15;;;5.90;99.90;;;;;;5054296;28;20036;-69
2021/11/30 08:19:28;;;;;;;57.45;7.97;;;5.90;99.90;;;;;;5053808;28;20044;-69
2021/11/30 08:21:54;;;;;;;41.90;7.60;;;6.00;99.90;;;;;;5054687;28;20025;-69
2021/11/30 08:24:20;;;;;;;52.78;6.50;;;6.10;99.90;;;;;;5054141;28;20056;-69
2021/11/30 08:26:46;;;;;;;42.70;6.80;;;6.30;99.90;;;;;;5054399;28;20032;-69
2021/11/30 08:29:11;;;;;;;47.25;6.18;;;6.20;99.90;;;;;;5053581;28;20029;-69
2021/11/30 08:31:37;;;;;;;49.45;7.28;;;6.20;99.90;;;;;;5054609;28;20023;-69
2021/11/30 08:34:03;;;;;;;59.40;7.93;;;6.20;99.90;;;;;;5054854;28;20036;-69
2021/11/30 08:36:29;;;;;;;39.40;6.85;;;6.20;99.90;;;;;;5054078;28;20412;-69
2021/11/30 08:38:54;;;;;;;44.65;6.18;;;6.20;99.90;;;;;;5061220;28;20055;-69
2021/11/30 08:41:23;;;;;;;51.58;7.47;;;6.20;99.90;;;;;;5053676;28;20017;-69
2021/11/30 08:43:50;;;;;;;54.28;6.68;;;6.30;99.90;;;;;;5054124;28;20075;-68
2021/11/30 08:46:16;;;;;;;43.30;6.40;;;6.30;99.90;;;;;;5071967;28;20038;-69
2021/11/30 08:48:42;;;;;;;25.48;6.15;;;6.20;99.90;;;;;;5060564;28;20505;-69
2021/11/30 08:51:07;;;;;;;29.30;4.55;;;6.10;99.90;;;;;;5053721;28;20036;-69
2021/11/30 08:53:34;;;;;;;34.20;4.60;;;6.10;99.90;;;;;;5055817;28;20056;-68
2021/11/30 08:56:01;;;;;;;36.38;5.38;;;6.10;99.90;;;;;;5053600;28;20032;-68
2021/11/30 08:58:27;;;;;;;36.85;6.07;;;6.20;99.90;;;;;;5053696;28;20028;-68
2021/11/30 09:00:53;;;;;;;35.85;5.72;;;6.20;99.90;;;;;;5053910;28;20404;-69
2021/11/30 09:03:19;;;;;;;39.15;4.63;;;6.30;99.90;;;;;;5068283;28;20028;-69
2021/11/30 09:05:44;;;;;;;35.97;5.28;;;6.30;99.90;;;;;;5073502;28;20033;-68
2021/11/30 09:08:11;;;;;;;36.35;5.40;;;6.40;99.90;;;;;;5058394;28;20025;-68
2021/11/30 09:10:37;;;;;;;28.92;5.35;;;6.40;99.90;;;;;;5070426;28;20027;-69
2021/11/30 09:13:03;;;;;;;27.52;4.72;;;6.40;99.90;;;;;;5060451;28;20476;-68
2021/11/30 09:15:29;;;;;;;34.53;4.53;;;6.50;99.90;;;;;;5053368;28;20036;-69
2021/11/30 09:17:56;;;;;;;22.42;4.68;;;6.50;99.90;;;;;;5062905;28;20035;-68
2021/11/30 09:20:22;;;;;;;36.83;4.53;;;6.40;99.90;;;;;;5073481;28;20027;-68
2021/11/30 09:22:50;;;;;;;36.40;4.68;;;6.50;99.90;;;;;;5062853;28;20427;-68
2021/11/30 09:25:16;;;;;;;32.60;4.38;;;6.50;99.90;;;;;;5053598;28;20071;-68
2021/11/30 09:27:43;;;;;;;28.70;5.45;;;6.40;99.90;;;;;;5033498;28;20033;-68
2021/11/30 09:30:11;;;;;;;45.70;8.60;;;6.30;99.90;;;;;;5040419;28;20022;-68
2021/11/30 09:32:39;;;;;;;33.97;6.30;;;6.30;99.90;;;;;;5053614;28;20090;-68
2021/11/30 09:35:08;;;;;;;42.35;5.85;;;6.30;99.90;;;;;;5052829;28;20048;-68
2021/11/30 09:37:38;;;;;;;41.30;5.75;;;6.50;99.90;;;;;;5053443;28;20029;-68
2021/11/30 09:40:04;;;;;;;49.88;6.25;;;6.50;99.90;;;;;;5053803;28;20024;-69
2021/11/30 09:42:30;;;;;;;29.20;5.03;;;6.50;99.90;;;;;;5053189;28;20357;-68
2021/11/30 09:44:56;;;;;;;44.13;6.55;;;6.50;99.90;;;;;;5052823;28;20048;-68
2021/11/30 09:47:22;;;;;;;49.08;5.10;;;6.50;99.90;;;;;;5053357;28;20032;-68
2021/11/30 09:49:48;;;;;;;27.65;5.22;;;6.50;99.90;;;;;;5052867;28;20060;-68
2021/11/30 09:52:13;;;;;;;32.90;5.05;;;6.60;99.90;;;;;;5053261;28;20061;-68
2021/11/30 09:54:39;;;;;;;30.23;4.63;;;6.70;99.90;;;;;;5067617;28;20044;-68
2021/11/30 09:57:04;;;;;;;36.88;6.15;;;6.70;99.90;;;;;;5053140;28;20025;-68
2021/11/30 09:59:30;;;;;;;34.60;5.03;;;6.50;99.90;;;;;;5052713;28;20471;-68
2021/11/30 10:01:56;;;;;;;47.50;5.82;;;6.40;99.90;;;;;;5053221;28;20032;-68
2021/11/30 10:04:22;;;;;;;47.95;6.38;;;6.30;99.90;;;;;;5052193;28;20400;-68
2021/11/30 10:06:47;;;;;;;38.72;5.95;;;6.40;99.90;;;;;;5052899;28;20029;-68
2021/11/30 10:09:23;;;;;;;43.60;6.03;;;6.30;99.90;;;;;;5052610;28;20036;-69
2021/11/30 10:12:01;;;;;;;39.50;5.95;;;6.30;99.90;;;;;;5053254;28;20036;-68
2021/11/30 10:14:35;;;;;;;44.42;5.97;;;6.20;99.90;;;;;;5052617;28;20504;-68
2021/11/30 10:17:22;;;;;;;40.63;4.93;;;6.20;99.90;;;;;;5052979;28;20033;-68
2021/11/30 10:20:11;;;;;;;52.00;6.80;;;6.30;99.90;;;;;;5057024;28;20029;-68
2021/11/30 10:22:40;;;;;;;51.78;6.55;;;6.20;99.90;;;;;;5057108;28;20601;-68
2021/11/30 10:25:19;;;;;;;45.17;5.60;;;6.00;99.90;;;;;;5056255;28;20036;-68
2021/11/30 10:27:54;;;;;;;55.47;8.27;;;5.90;99.90;;;;;;5056960;28;20028;-68
2021/11/30 10:30:23;;;;;;;56.03;6.95;;;5.90;99.90;;;;;;5056052;28;20117;-68
2021/11/30 10:32:51;;;;;;;38.05;6.65;;;5.90;99.90;;;;;;5056629;28;20484;-68
2021/11/30 10:35:19;;;;;;;39.88;6.55;;;5.80;99.90;;;;;;5056248;28;20025;-68
2021/11/30 10:37:46;;;;;;;41.97;5.22;;;5.90;99.90;;;;;;5056703;28;20112;-68
2021/11/30 10:40:16;;;;;;;33.92;5.47;;;6.00;99.90;;;;;;5056242;28;20103;-69
2021/11/30 10:42:48;;;;;;;38.08;6.20;;;6.20;99.90;;;;;;5055916;28;20395;-69
2021/11/30 10:45:35;;;;;;;46.83;7.70;;;6.30;99.90;;;;;;5056059;28;20128;-68
2021/11/30 10:48:14;;;;;;;45.72;6.00;;;6.40;99.90;;;;;;5057177;28;20056;-69
2021/11/30 10:50:46;;;;;;;44.35;5.18;;;6.40;99.90;;;;;;5056081;28;20029;-69
2021/11/30 10:53:28;;;;;;;34.22;5.82;;;6.30;99.90;;;;;;5056262;28;20373;-69
2021/11/30 10:56:07;;;;;;;35.13;6.65;;;6.30;99.90;;;;;;5055393;28;20416;-69
2021/11/30 10:58:43;;;;;;;39.90;6.70;;;6.30;99.90;;;;;;5055787;28;20511;-69
2021/11/30 11:01:13;;;;;;;39.35;6.20;;;6.30;99.90;;;;;;5056117;28;20020;-68
2021/11/30 11:03:39;;;;;;;34.53;5.72;;;6.30;99.90;;;;;;5056158;28;20052;-69
2021/11/30 11:08:53;;;;;;;27.60;4.65;;;6.80;99.90;;;;;;5055309;28;20427;-69
2021/11/30 11:11:25;;;;;;;47.00;6.47;;;6.80;99.90;;;;;;5055672;28;20079;-69
2021/11/30 11:13:52;;;;;;;39.78;6.30;;;6.80;99.90;;;;;;5071312;28;20486;-69
2021/11/30 11:16:26;;;;;;;58.00;8.90;;;6.70;99.90;;;;;;5070670;28;20044;-69
2021/11/30 11:18:55;;;;;;;35.80;5.25;;;6.60;99.90;;;;;;5055200;28;20086;-69
2021/11/30 11:21:27;;;;;;;38.92;5.60;;;6.70;99.90;;;;;;5055417;28;20021;-69
2021/11/30 11:24:25;;;;;;;46.20;6.53;;;6.80;99.90;;;;;;5055701;28;20021;-69
2021/11/30 11:26:51;;;;;;;48.25;7.95;;;6.70;99.90;;;;;;5055527;28;20105;-70
2021/11/30 11:29:19;;;;;;;69.05;10.77;;;6.60;99.90;;;;;;5054504;28;20032;-69
2021/11/30 11:31:47;;;;;;;50.70;6.13;;;6.70;99.90;;;;;;5054842;28;20038;-69
2021/11/30 11:34:16;;;;;;;44.15;6.38;;;6.80;99.90;;;;;;5055773;28;20052;-69
2021/11/30 11:36:44;;;;;;;37.80;6.03;;;6.90;99.90;;;;;;5055030;28;20110;-69
2021/11/30 11:39:12;;;;;;;53.47;6.65;;;6.90;99.90;;;;;;5055634;28;20040;-69
2021/11/30 11:41:39;;;;;;;39.17;5.20;;;6.80;99.90;;;;;;5055346;28;20032;-69
2021/11/30 11:44:04;;;;;;;40.63;5.22;;;6.80;99.90;;;;;;5053603;28;20027;-69
2021/11/30 11:46:37;;;;;;;43.47;6.40;;;6.80;99.90;;;;;;5054934;28;20021;-70
2021/11/30 11:49:05;;;;;;;39.60;5.40;;;6.90;99.90;;;;;;5053903;28;20029;-68
2021/11/30 11:51:48;;;;;;;41.70;6.63;;;6.90;99.90;;;;;;5054744;28;20025;-69
2021/11/30 11:54:31;;;;;;;37.40;7.03;;;6.80;99.90;;;;;;5069725;28;20028;-69
2021/11/30 11:57:06;;;;;;;53.22;6.85;;;6.80;99.90;;;;;;5063664;28;20017;-69
2021/11/30 12:00:17;;;;;;;57.17;7.88;;;6.90;99.90;;;;;;5055149;28;20094;-69
2021/11/30 12:02:54;;;;;;;43.70;5.90;;;6.90;99.90;;;;;;5037635;28;20114;-69
2021/11/30 12:05:41;;;;;;;47.20;8.85;;;7.00;99.90;;;;;;5054400;28;20043;-69
2021/11/30 12:08:18;;;;;;;34.47;6.43;;;7.10;99.90;;;;;;5054840;28;20511;-69
2021/11/30 12:10:43;;;;;;;55.78;6.40;;;7.30;99.90;;;;;;5053843;28;20029;-69
2021/11/30 12:13:09;;;;;;;30.88;4.43;;;7.60;99.90;;;;;;5054566;28;20033;-69
2021/11/30 12:15:57;;;;;;;24.65;4.75;;;7.30;99.90;;;;;;5054497;28;20035;-68
2021/11/30 12:18:40;;;;;;;18.80;3.25;;;6.10;99.90;;;;;;5056962;28;20036;-68
2021/11/30 12:21:28;;;;;;;24.35;3.20;;;5.40;99.90;;;;;;5034661;28;20024;-68
2021/11/30 12:23:56;;;;;;;23.73;4.18;;;5.10;99.90;;;;;;5045265;28;20610;-68
2021/11/30 12:26:28;;;;;;;23.70;3.20;;;5.10;99.90;;;;;;5071227;28;20170;-68
2021/11/30 12:28:53;;;;;;;24.77;3.17;;;5.10;99.90;;;;;;5072428;28;20103;-68
2021/11/30 12:31:37;;;;;;;34.22;4.20;;;5.20;99.90;;;;;;5072602;28;20067;-68
2021/11/30 12:34:06;;;;;;;26.20;4.05;;;5.20;99.90;;;;;;5071980;28;20025;-68
2021/11/30 12:36:35;;;;;;;43.22;5.57;;;5.30;99.90;;;;;;5074305;28;20032;-68
2021/11/30 12:39:02;;;;;;;24.45;4.97;;;5.40;99.90;;;;;;5066472;28;20077;-68
2021/11/30 12:41:36;;;;;;;38.10;5.15;;;5.50;99.90;;;;;;5060184;28;20096;-68
2021/11/30 12:44:11;;;;;;;34.35;5.47;;;5.60;99.90;;;;;;5054490;28;20170;-68
2021/11/30 12:46:52;;;;;;;27.10;4.68;;;5.80;99.90;;;;;;5055860;28;20033;-68
2021/11/30 12:49:24;;;;;;;30.23;2.97;;;5.80;99.90;;;;;;5056826;28;20147;-68
2021/11/30 12:52:11;;;;;;;25.20;3.78;;;5.50;99.90;;;;;;5054258;28;20029;-68
2021/11/30 12:54:39;;;;;;;23.42;3.55;;;5.40;99.90;;;;;;5053704;28;20021;-68
2021/11/30 12:57:06;;;;;;;21.73;4.20;;;5.40;99.90;;;;;;5058478;28;20111;-68
2021/11/30 12:59:37;;;;;;;51.80;6.00;;;5.50;99.90;;;;;;5054160;28;20078;-69
2021/11/30 13:02:24;;;;;;;39.92;4.32;;;5.50;99.90;;;;;;5053844;28;20021;-68